Terminal Aerodrome Forecast
Issued by NWS Caribou, ME

Home | Current Version | Previous Version | Text Only | Print | Product List | Glossary On
Versions: 1 2 3 4 5 6 7 8 9 10 11 12 13 14 15 16 17 18 19 20 21 22 23 24 25 26 27 28 29 30 31 32 33 34 35 36 37 38
000
FTUS41 KCAR 182320
TAFBGR
TAF
KBGR 182320Z 1900/1924 18006KT P6SM SCT100
     FM190400 19003KT P6SM SCT035 BKN070
     FM190700 VRB02KT P6SM SCT010 BKN022
     FM190900 18003KT 3SM BR OVC007
     FM191300 19005KT P6SM BKN012
     FM191500 19006KT P6SM BKN022
     FM191800 18008KT P6SM SCT025 BKN040=

USA.gov is the U.S. government's official web portal to all federal, state and local government web resources and services.